Seabourn Odyssey — C6XC6 — position and weather

sailwx.info

Track history (hours):
 
Tides and Currents Weather Stations Pressure Air Temp Water Temp Dewpoint Dewpoint Depression Visibility Wind Speed Wind Dir Waves Ship Positions

Seabourn Odyssey

Last reported at 2018-Jun-20 21:36 UTC. Time now 2018-Jun-22 09:00 UTC.
Position N 35°38' E 024°27'.

Length 198 m; draft 6.7 m.

Type: Ship. MMSI: 309416000.

Date/timePositionNaut miles runAvg speedWind from/ knotsBaromVisibWave heightAir tempDewpointWater temp
2018-Jun-20 21:36N 35°38' E 024°27'113.7
2018-Jun-20 21:30N 35°38' E 024°28'91 3.0
2018-Jun-19 15:23N 36°59' E 025°17'513.3
2018-Jun-19 15:01N 37°04' E 025°18'3 6.8
2018-Jun-19 14:30N 37°06' E 025°21'0 0.1
2018-Jun-19 13:59N 37°06' E 025°21'0 0.0
2018-Jun-19 13:26N 37°06' E 025°21'0 0.0
2018-Jun-19 12:59N 37°06' E 025°21'0 0.0
2018-Jun-19 12:29N 37°06' E 025°21'0 0.0
2018-Jun-19 11:59N 37°06' E 025°21'0 0.0
2018-Jun-19 11:29N 37°06' E 025°21'0 0.0
2018-Jun-19 10:56N 37°06' E 025°21'0 0.0
2018-Jun-19 10:26N 37°06' E 025°21'0 0.0
2018-Jun-19 09:59N 37°06' E 025°21'0 0.0
2018-Jun-19 09:26N 37°06' E 025°21'0 0.1
2018-Jun-19 08:59N 37°06' E 025°21'0 0.0
2018-Jun-19 08:29N 37°06' E 025°21'0 0.0
2018-Jun-19 07:59N 37°06' E 025°21'0 0.1
2018-Jun-19 07:29N 37°06' E 025°21'0 0.0
2018-Jun-19 06:59N 37°06' E 025°21'0 0.0
2018-Jun-19 06:26N 37°06' E 025°21'0 0.1
2018-Jun-19 05:56N 37°06' E 025°21'0 0.0
2018-Jun-19 05:26N 37°06' E 025°21'0 0.2
2018-Jun-19 05:00N 37°06' E 025°21'0 0.2
2018-Jun-19 04:30N 37°06' E 025°21'3 6.3
2018-Jun-19 04:01N 37°09' E 025°22'3 6.2
2018-Jun-19 03:30N 37°12' E 025°22'3 5.2
2018-Jun-19 03:01N 37°14' E 025°24'3 6.5
2018-Jun-19 02:31N 37°16' E 025°27'4 7.9
2018-Jun-19 02:00N 37°18' E 025°31'12 7.0
2018-Jun-19 00:18N 37°23' E 025°45'9 7.2
2018-Jun-18 23:04N 37°31' E 025°43'1 7.1
2018-Jun-18 23:00N 37°32' E 025°42'4 7.2
2018-Jun-18 22:31N 37°33' E 025°38'4 7.2
2018-Jun-18 22:00N 37°35' E 025°34'4 7.4
2018-Jun-18 21:30N 37°36' E 025°30'5 9.7
2018-Jun-18 21:00N 37°35' E 025°24'713.1
2018-Jun-18 20:30N 37°31' E 025°18'4 7.8
2018-Jun-18 20:01N 37°27' E 025°19'0 0.3
2018-Jun-18 19:30N 37°27' E 025°19'0 0.0
2018-Jun-18 19:00N 37°27' E 025°19'0 0.0
2018-Jun-18 18:27N 37°27' E 025°19'0 0.1
2018-Jun-18 18:00N 37°27' E 025°19'0 0.0
2018-Jun-18 17:24N 37°27' E 025°19'0 0.0
2018-Jun-18 17:00N 37°27' E 025°19'0 0.0
2018-Jun-18 16:24N 37°27' E 025°19'0 0.0
2018-Jun-18 16:00N 37°27' E 025°19'0 0.0
2018-Jun-18 15:15N 37°27' E 025°19'0 0.1
2018-Jun-18 15:00N 37°27' E 025°19'0 0.0
2018-Jun-18 14:30N 37°27' E 025°19'0 0.0
2018-Jun-18 14:00N 37°27' E 025°19'0 0.0
2018-Jun-18 13:27N 37°27' E 025°19'0 0.1
2018-Jun-18 13:00N 37°27' E 025°19'0 0.1
2018-Jun-18 12:30N 37°27' E 025°19'0 0.0
2018-Jun-18 12:00N 37°27' E 025°19'0 0.1
2018-Jun-18 11:18N 37°27' E 025°19'0 0.1
2018-Jun-18 10:42N 37°27' E 025°19'0 0.2
2018-Jun-18 10:30N 37°27' E 025°19'0 0.0
2018-Jun-18 09:57N 37°27' E 025°19'0 0.0
2018-Jun-18 09:30N 37°27' E 025°19'0 0.1
2018-Jun-18 08:54N 37°27' E 025°19'0 0.1
2018-Jun-18 08:21N 37°27' E 025°19'0 0.0
2018-Jun-18 08:00N 37°27' E 025°19'0 0.1
2018-Jun-18 07:30N 37°27' E 025°19'0 0.0
2018-Jun-18 06:09N 37°27' E 025°19'0 0.0
2018-Jun-18 05:45N 37°27' E 025°19'0 0.0
2018-Jun-18 05:27N 37°27' E 025°19'0 0.0
2018-Jun-18 04:27N 37°27' E 025°19'0 0.5
2018-Jun-18 04:00N 37°27' E 025°19'3 5.2
2018-Jun-18 03:30N 37°29' E 025°17'3 6.6
2018-Jun-18 03:00N 37°33' E 025°17'3 6.3
2018-Jun-18 02:30N 37°36' E 025°18'6 6.8
2018-Jun-18 01:40N 37°41' E 025°16'1 7.2
2018-Jun-18 01:30N 37°42' E 025°15'52 1.7
2018-Jun-16 18:08N 37°37' E 024°09'1511.0
2018-Jun-16 16:49N 37°36' E 023°51'412.1
2018-Jun-16 16:30N 37°36' E 023°46'611.7
2018-Jun-16 15:59N 37°41' E 023°41'511.3
2018-Jun-16 15:30N 37°46' E 023°38'5 9.8
2018-Jun-16 15:00N 37°51' E 023°36'611.1
2018-Jun-16 14:30N 37°56' E 023°37'1 1.7
2018-Jun-16 14:00N 37°56' E 023°38'0 0.0
2018-Jun-16 13:30N 37°56' E 023°38'0 0.0
2018-Jun-16 13:00N 37°56' E 023°38'0 0.0
2018-Jun-16 12:30N 37°56' E 023°38'0 0.0
2018-Jun-16 12:00N 37°56' E 023°38'0 0.0
2018-Jun-16 11:30N 37°56' E 023°38'0 0.0
2018-Jun-16 11:00N 37°56' E 023°38'0 0.0
2018-Jun-16 10:30N 37°56' E 023°38'0 0.0
2018-Jun-16 10:00N 37°56' E 023°38'0 0.0
2018-Jun-16 09:30N 37°56' E 023°38'0 0.0
2018-Jun-16 09:00N 37°56' E 023°38'0 0.0
2018-Jun-16 08:30N 37°56' E 023°38'0 0.0
2018-Jun-16 08:00N 37°56' E 023°38'0 0.0
2018-Jun-16 07:30N 37°56' E 023°38'0 0.0
2018-Jun-16 07:00N 37°56' E 023°38'0 0.0
2018-Jun-16 06:30N 37°56' E 023°38'0 0.0
2018-Jun-16 06:00N 37°56' E 023°38'0 0.0
2018-Jun-16 05:30N 37°56' E 023°38'0 0.0
2018-Jun-16 05:00N 37°56' E 023°38'0 0.0
2018-Jun-16 04:30N 37°56' E 023°38'0 0.0
2018-Jun-16 04:00N 37°56' E 023°38'0 0.0
2018-Jun-16 03:30N 37°56' E 023°38'0 0.0
2018-Jun-16 03:00N 37°56' E 023°38'0 0.0
2018-Jun-16 02:30N 37°56' E 023°38'0 0.0
2018-Jun-16 02:00N 37°56' E 023°38'1 1.2
2018-Jun-16 01:30N 37°56' E 023°37'3 6.5
2018-Jun-16 01:00N 37°53' E 023°37'4 7.4
2018-Jun-16 00:30N 37°50' E 023°39'3 6.5
2018-Jun-16 00:00N 37°47' E 023°41'3 6.6
2018-Jun-15 23:30N 37°44' E 023°43'3 6.6
2018-Jun-15 23:00N 37°41' E 023°45'36 6.8
2018-Jun-15 17:48N 37°07' E 023°29'613.9
2018-Jun-15 17:21N 37°07' E 023°21'  
Track history (hours):
 
Tides and Currents Weather Stations Pressure Air Temp Water Temp Dewpoint Dewpoint Depression Visibility Wind Speed Wind Dir Waves Ship Positions

Seabourn Odyssey

Last reported at 2018-Jun-20 21:36 UTC. Time now 2018-Jun-22 09:00 UTC.
Position N 35°38' E 024°27'.

Length 198 m; draft 6.7 m.

Type: Ship. MMSI: 309416000.

Date/timePositionNaut miles runAvg speedWind from/ knotsBaromVisibWave heightAir tempDewpointWater temp
2018-Jun-20 21:36N 35°38' E 024°27'113.7
2018-Jun-20 21:30N 35°38' E 024°28'91 3.0
2018-Jun-19 15:23N 36°59' E 025°17'513.3
2018-Jun-19 15:01N 37°04' E 025°18'3 6.8
2018-Jun-19 14:30N 37°06' E 025°21'0 0.1
2018-Jun-19 13:59N 37°06' E 025°21'0 0.0
2018-Jun-19 13:26N 37°06' E 025°21'0 0.0
2018-Jun-19 12:59N 37°06' E 025°21'0 0.0
2018-Jun-19 12:29N 37°06' E 025°21'0 0.0
2018-Jun-19 11:59N 37°06' E 025°21'0 0.0
2018-Jun-19 11:29N 37°06' E 025°21'0 0.0
2018-Jun-19 10:56N 37°06' E 025°21'0 0.0
2018-Jun-19 10:26N 37°06' E 025°21'0 0.0
2018-Jun-19 09:59N 37°06' E 025°21'0 0.0
2018-Jun-19 09:26N 37°06' E 025°21'0 0.1
2018-Jun-19 08:59N 37°06' E 025°21'0 0.0
2018-Jun-19 08:29N 37°06' E 025°21'0 0.0
2018-Jun-19 07:59N 37°06' E 025°21'0 0.1
2018-Jun-19 07:29N 37°06' E 025°21'0 0.0
2018-Jun-19 06:59N 37°06' E 025°21'0 0.0
2018-Jun-19 06:26N 37°06' E 025°21'0 0.1
2018-Jun-19 05:56N 37°06' E 025°21'0 0.0
2018-Jun-19 05:26N 37°06' E 025°21'0 0.2
2018-Jun-19 05:00N 37°06' E 025°21'0 0.2
2018-Jun-19 04:30N 37°06' E 025°21'3 6.3
2018-Jun-19 04:01N 37°09' E 025°22'3 6.2
2018-Jun-19 03:30N 37°12' E 025°22'3 5.2
2018-Jun-19 03:01N 37°14' E 025°24'3 6.5
2018-Jun-19 02:31N 37°16' E 025°27'4 7.9
2018-Jun-19 02:00N 37°18' E 025°31'12 7.0
2018-Jun-19 00:18N 37°23' E 025°45'9 7.2
2018-Jun-18 23:04N 37°31' E 025°43'1 7.1
2018-Jun-18 23:00N 37°32' E 025°42'4 7.2
2018-Jun-18 22:31N 37°33' E 025°38'4 7.2
2018-Jun-18 22:00N 37°35' E 025°34'4 7.4
2018-Jun-18 21:30N 37°36' E 025°30'5 9.7
2018-Jun-18 21:00N 37°35' E 025°24'713.1
2018-Jun-18 20:30N 37°31' E 025°18'4 7.8
2018-Jun-18 20:01N 37°27' E 025°19'0 0.3
2018-Jun-18 19:30N 37°27' E 025°19'0 0.0
2018-Jun-18 19:00N 37°27' E 025°19'0 0.0
2018-Jun-18 18:27N 37°27' E 025°19'0 0.1
2018-Jun-18 18:00N 37°27' E 025°19'0 0.0
2018-Jun-18 17:24N 37°27' E 025°19'0 0.0
2018-Jun-18 17:00N 37°27' E 025°19'0 0.0
2018-Jun-18 16:24N 37°27' E 025°19'0 0.0
2018-Jun-18 16:00N 37°27' E 025°19'0 0.0
2018-Jun-18 15:15N 37°27' E 025°19'0 0.1
2018-Jun-18 15:00N 37°27' E 025°19'0 0.0
2018-Jun-18 14:30N 37°27' E 025°19'0 0.0
2018-Jun-18 14:00N 37°27' E 025°19'0 0.0
2018-Jun-18 13:27N 37°27' E 025°19'0 0.1
2018-Jun-18 13:00N 37°27' E 025°19'0 0.1
2018-Jun-18 12:30N 37°27' E 025°19'0 0.0
2018-Jun-18 12:00N 37°27' E 025°19'0 0.1
2018-Jun-18 11:18N 37°27' E 025°19'0 0.1
2018-Jun-18 10:42N 37°27' E 025°19'0 0.2
2018-Jun-18 10:30N 37°27' E 025°19'0 0.0
2018-Jun-18 09:57N 37°27' E 025°19'0 0.0
2018-Jun-18 09:30N 37°27' E 025°19'0 0.1
2018-Jun-18 08:54N 37°27' E 025°19'0 0.1
2018-Jun-18 08:21N 37°27' E 025°19'0 0.0
2018-Jun-18 08:00N 37°27' E 025°19'0 0.1
2018-Jun-18 07:30N 37°27' E 025°19'0 0.0
2018-Jun-18 06:09N 37°27' E 025°19'0 0.0
2018-Jun-18 05:45N 37°27' E 025°19'0 0.0
2018-Jun-18 05:27N 37°27' E 025°19'0 0.0
2018-Jun-18 04:27N 37°27' E 025°19'0 0.5
2018-Jun-18 04:00N 37°27' E 025°19'3 5.2
2018-Jun-18 03:30N 37°29' E 025°17'3 6.6
2018-Jun-18 03:00N 37°33' E 025°17'3 6.3
2018-Jun-18 02:30N 37°36' E 025°18'6 6.8
2018-Jun-18 01:40N 37°41' E 025°16'1 7.2
2018-Jun-18 01:30N 37°42' E 025°15'52 1.7
2018-Jun-16 18:08N 37°37' E 024°09'1511.0
2018-Jun-16 16:49N 37°36' E 023°51'412.1
2018-Jun-16 16:30N 37°36' E 023°46'611.7
2018-Jun-16 15:59N 37°41' E 023°41'511.3
2018-Jun-16 15:30N 37°46' E 023°38'5 9.8
2018-Jun-16 15:00N 37°51' E 023°36'611.1
2018-Jun-16 14:30N 37°56' E 023°37'1 1.7
2018-Jun-16 14:00N 37°56' E 023°38'0 0.0
2018-Jun-16 13:30N 37°56' E 023°38'0 0.0
2018-Jun-16 13:00N 37°56' E 023°38'0 0.0
2018-Jun-16 12:30N 37°56' E 023°38'0 0.0
2018-Jun-16 12:00N 37°56' E 023°38'0 0.0
2018-Jun-16 11:30N 37°56' E 023°38'0 0.0
2018-Jun-16 11:00N 37°56' E 023°38'0 0.0
2018-Jun-16 10:30N 37°56' E 023°38'0 0.0
2018-Jun-16 10:00N 37°56' E 023°38'0 0.0
2018-Jun-16 09:30N 37°56' E 023°38'0 0.0
2018-Jun-16 09:00N 37°56' E 023°38'0 0.0
2018-Jun-16 08:30N 37°56' E 023°38'0 0.0
2018-Jun-16 08:00N 37°56' E 023°38'0 0.0
2018-Jun-16 07:30N 37°56' E 023°38'0 0.0
2018-Jun-16 07:00N 37°56' E 023°38'0 0.0
2018-Jun-16 06:30N 37°56' E 023°38'0 0.0
2018-Jun-16 06:00N 37°56' E 023°38'0 0.0
2018-Jun-16 05:30N 37°56' E 023°38'0 0.0
2018-Jun-16 05:00N 37°56' E 023°38'0 0.0
2018-Jun-16 04:30N 37°56' E 023°38'0 0.0
2018-Jun-16 04:00N 37°56' E 023°38'0 0.0
2018-Jun-16 03:30N 37°56' E 023°38'0 0.0
2018-Jun-16 03:00N 37°56' E 023°38'0 0.0
2018-Jun-16 02:30N 37°56' E 023°38'0 0.0
2018-Jun-16 02:00N 37°56' E 023°38'1 1.2
2018-Jun-16 01:30N 37°56' E 023°37'3 6.5
2018-Jun-16 01:00N 37°53' E 023°37'4 7.4
2018-Jun-16 00:30N 37°50' E 023°39'3 6.5
2018-Jun-16 00:00N 37°47' E 023°41'3 6.6
2018-Jun-15 23:30N 37°44' E 023°43'3 6.6
2018-Jun-15 23:00N 37°41' E 023°45'36 6.8
2018-Jun-15 17:48N 37°07' E 023°29'613.9
2018-Jun-15 17:21N 37°07' E 023°21'  

Dump ship's entire track history